Time;durP1;ratioP1;P1;durP2;ratioP2;P2;SDS_P1;SDS_P2;PMS_P1;PMS_P2;Temp;Humidity;BMP_temperature;BMP_pressure;BME280_temperature;BME280_humidity;BME280_pressure;Samples;Min_cycle;Max_cycle;Signal;HPM_P1;HPM_P2
2023/01/05 00:01:52;;;;;;;1.33;0.90;;;12.30;95.30;;;12.70;62.56;99116.38;4964310;28;113858;-72
2023/01/05 00:04:19;;;;;;;1.83;0.87;;;12.20;95.30;;;12.71;62.67;99129.09;4970031;28;123274;-73
2023/01/05 00:06:46;;;;;;;0.80;0.80;;;12.20;95.30;;;12.71;62.64;99118.03;4968332;28;123634;-74
2023/01/05 00:09:16;;;;;;;0.90;0.80;;;12.30;95.30;;;12.70;62.50;99099.72;4967451;28;114061;-71
2023/01/05 00:23:03;;;;;;;1.00;0.90;;;12.30;95.30;;;12.71;62.78;99090.28;4971749;28;114935;-74
2023/01/05 00:25:33;;;;;;;0.90;0.80;;;12.30;95.30;;;12.73;62.48;99098.28;4954601;28;123038;-74
2023/01/05 00:27:59;;;;;;;1.73;0.97;;;12.30;95.30;;;12.74;62.55;99124.88;4967351;28;123669;-73
2023/01/05 00:30:30;;;;;;;1.00;0.90;;;12.30;95.40;;;12.73;62.88;99114.91;4955063;28;114564;-73
2023/01/05 00:32:56;;;;;;;0.80;0.70;;;12.30;95.40;;;12.74;62.75;99122.91;4968632;28;114041;-74
2023/01/05 00:35:23;;;;;;;3.43;0.80;;;12.30;95.30;;;12.74;62.63;99105.47;4969773;28;123966;-74
2023/01/05 00:37:50;;;;;;;0.83;0.80;;;12.30;95.30;;;12.74;62.86;99100.75;4969394;28;124568;-73
2023/01/05 00:40:19;;;;;;;1.10;1.00;;;12.30;95.30;;;12.75;62.90;99090.47;4964578;28;116829;-74
2023/01/05 00:42:46;;;;;;;1.67;0.90;;;12.40;95.40;;;12.76;62.72;99098.47;4967038;28;114973;-74
2023/01/05 00:45:15;;;;;;;1.03;0.80;;;12.30;95.40;;;12.77;62.87;99097.31;4974804;28;123918;-74
2023/01/05 00:47:42;;;;;;;1.30;0.83;;;12.40;95.50;;;12.78;62.88;99101.72;4969304;28;123929;-74
2023/01/05 00:50:14;;;;;;;0.93;0.77;;;12.30;95.40;;;12.79;62.74;99097.84;4970952;28;114838;-71
2023/01/05 00:52:40;;;;;;;0.93;0.80;;;12.40;95.50;;;12.78;63.12;99100.91;4971067;28;113062;-74
2023/01/05 00:55:07;;;;;;;1.00;0.80;;;12.40;95.60;;;12.77;63.00;99100.09;4967459;28;124246;-74
2023/01/05 00:57:34;;;;;;;1.17;0.90;;;12.40;95.60;;;12.79;63.06;99091.47;4969556;28;124341;-73
2023/01/05 01:00:03;;;;;;;0.83;0.70;;;12.30;95.50;;;12.80;63.27;99109.72;4953411;28;113612;-73
2023/01/05 01:02:29;;;;;;;0.80;0.80;;;12.30;95.60;;;12.80;62.77;99088.34;4959986;28;114295;-73
2023/01/05 01:04:56;;;;;;;0.80;0.70;;;12.40;95.70;;;12.81;63.13;99114.97;4967650;28;123090;-73
2023/01/05 01:07:24;;;;;;;1.40;0.87;;;12.40;95.60;;;12.83;63.07;99114.63;4964047;28;124014;-74
2023/01/05 01:09:50;;;;;;;0.90;0.70;;;12.40;95.90;;;12.83;63.16;99115.44;4966122;28;114303;-75
2023/01/05 01:12:17;;;;;;;1.50;1.20;;;12.40;95.70;;;12.85;63.22;99106.00;4967256;28;114798;-79
2023/01/05 01:14:47;;;;;;;0.80;0.70;;;12.40;95.70;;;12.84;63.32;99110.72;4966307;28;124482;-74
2023/01/05 01:17:17;;;;;;;0.80;0.70;;;12.40;95.70;;;12.83;63.19;99121.00;4968282;28;123777;-74
2023/01/05 01:19:45;;;;;;;0.93;0.80;;;12.40;95.70;;;12.82;63.27;99113.81;4967917;28;114598;-74
2023/01/05 01:22:13;;;;;;;0.80;0.70;;;12.40;95.70;;;12.82;63.04;99115.78;4971327;28;113240;-73
2023/01/05 01:24:39;;;;;;;1.10;0.83;;;12.40;95.70;;;12.83;63.16;99120.19;4964597;28;123805;-73
2023/01/05 01:27:06;;;;;;;0.80;0.70;;;12.80;95.90;;;12.85;63.32;99114.31;4968308;28;123835;-73
2023/01/05 01:29:33;;;;;;;1.67;0.80;;;12.80;95.90;;;12.86;63.36;99118.72;4949349;28;114509;-74
2023/01/05 01:31:59;;;;;;;1.60;0.83;;;12.40;95.80;;;12.85;63.50;99097.69;4967706;28;115544;-74
2023/01/05 01:34:26;;;;;;;1.07;0.70;;;12.40;95.80;;;12.83;63.38;99098.81;4954904;28;123278;-74
2023/01/05 01:36:55;;;;;;;0.80;0.80;;;12.40;95.80;;;12.82;63.54;99090.81;5002684;28;123313;-74
2023/01/05 01:39:22;;;;;;;1.73;1.00;;;12.40;95.90;;;12.85;63.36;99101.28;4954166;28;113282;-74
2023/01/05 01:41:49;;;;;;;0.80;0.70;;;12.40;95.90;;;12.85;63.62;99083.81;4967713;28;114251;-73
2023/01/05 01:44:48;;;;;;;1.10;0.70;;;12.40;95.90;;;12.84;63.64;99091.31;4967760;28;124068;-77
2023/01/05 01:47:35;;;;;;;1.10;0.80;;;12.40;95.90;;;12.85;63.53;99083.81;4967555;28;123561;-74
2023/01/05 01:50:31;;;;;;;0.90;0.70;;;13.20;96.20;;;12.82;63.58;99083.31;4968408;28;114341;-74
2023/01/05 01:53:14;;;;;;;0.90;0.77;;;12.40;95.90;;;12.83;63.62;99076.63;4966893;28;113497;-74
2023/01/05 01:55:41;;;;;;;0.80;0.70;;;12.40;95.90;;;12.87;63.56;99087.06;4968977;28;124046;-73
2023/01/05 01:58:14;;;;;;;0.80;0.73;;;12.50;95.90;;;12.87;63.47;99087.06;4969183;28;123513;-75
2023/01/05 02:00:40;;;;;;;0.80;0.70;;;12.50;96.00;;;12.88;63.39;99081.22;4968149;28;113983;-74
2023/01/05 02:03:07;;;;;;;0.90;0.80;;;12.40;95.90;;;12.89;63.32;99084.81;4969214;28;114029;-74
2023/01/05 02:05:39;;;;;;;0.90;0.70;;;12.40;95.90;;;12.91;63.59;99088.91;4968285;28;124163;-75
2023/01/05 02:08:12;;;;;;;2.23;0.90;;;12.40;95.90;;;12.91;63.53;99094.44;4963547;28;123741;-74
2023/01/05 02:11:03;;;;;;;0.80;0.70;;;13.80;96.50;;;12.91;63.18;99065.91;4968408;28;114419;-74
2023/01/05 02:14:07;;;;;;;1.07;0.70;;;12.50;95.90;;;12.91;63.22;99077.78;4968411;28;114004;-75
2023/01/05 02:16:55;;;;;;;0.90;0.70;;;12.50;95.90;;;12.92;63.35;99075.84;4967751;28;124123;-74
2023/01/05 02:19:53;;;;;;;0.80;0.70;;;12.50;96.00;;;12.91;63.49;99071.44;4954187;28;123888;-74
2023/01/05 02:23:20;;;;;;;0.80;0.70;;;12.50;96.00;;;12.92;63.40;99078.59;4963994;28;114162;-74
2023/01/05 02:26:01;;;;;;;1.23;0.70;;;12.50;96.00;;;12.93;63.67;99066.41;4971258;28;114824;-74
2023/01/05 02:28:51;;;;;;;1.17;0.80;;;12.50;96.00;;;12.95;63.64;99072.41;4969448;28;122963;-74
2023/01/05 02:31:47;;;;;;;1.33;0.70;;;12.50;96.00;;;12.93;63.57;99063.63;4966534;28;123185;-74
2023/01/05 02:34:25;;;;;;;0.90;0.80;;;12.50;96.00;;;12.94;63.75;99065.25;4964531;28;114171;-74
2023/01/05 02:36:59;;;;;;;0.97;0.87;;;12.50;96.10;;;12.96;63.81;99062.97;4956168;28;113913;-74
2023/01/05 02:39:53;;;;;;;0.80;0.80;;;12.50;96.10;;;12.95;63.79;99051.06;4962761;28;123181;-74
2023/01/05 02:42:23;;;;;;;0.90;0.73;;;12.60;96.20;;;12.99;63.72;99049.28;4967792;28;123593;-74
2023/01/05 02:44:50;;;;;;;0.80;0.70;;;12.50;96.20;;;13.00;63.97;99037.06;4968540;28;114254;-74
2023/01/05 02:47:26;;;;;;;1.00;0.87;;;12.50;96.20;;;13.02;63.97;99047.81;4968410;28;114032;-76
2023/01/05 02:50:00;;;;;;;0.80;0.70;;;12.70;96.20;;;13.04;63.77;99053.88;4967310;28;124600;-74
2023/01/05 02:52:36;;;;;;;1.53;0.80;;;12.60;96.20;;;13.04;63.95;99053.88;4966971;28;123722;-74
2023/01/05 02:55:09;;;;;;;0.90;0.70;;;12.60;96.20;;;13.05;63.89;99053.53;4968986;28;114165;-74
2023/01/05 02:57:51;;;;;;;0.90;0.80;;;13.00;96.40;;;13.09;63.62;99047.34;4961136;28;114160;-74
2023/01/05 03:00:29;;;;;;;0.90;0.70;;;12.60;96.20;;;13.11;63.63;99047.81;4967300;28;124413;-74
2023/01/05 03:03:07;;;;;;;1.00;0.80;;;12.70;96.20;;;13.12;63.79;99041.97;4966846;28;123867;-74
2023/01/05 03:05:42;;;;;;;0.80;0.70;;;12.70;96.20;;;13.14;63.82;99052.75;4965858;28;114132;-74
2023/01/05 03:08:20;;;;;;;0.90;0.70;;;12.80;96.20;;;13.17;63.70;99052.91;4966115;28;113970;-74
2023/01/05 03:14:15;;;;;;;0.87;0.70;;;12.90;96.30;;;13.18;63.49;99048.97;4969259;28;124530;-74
2023/01/05 03:16:44;;;;;;;0.80;0.70;;;12.80;96.20;;;13.19;63.48;99050.63;4968901;28;115144;-74
2023/01/05 03:36:17;;;;;;;0.80;0.70;;;12.80;96.20;;;13.22;63.68;99050.00;4954956;28;124338;-72
2023/01/05 03:38:47;;;;;;;0.90;0.80;;;12.80;96.30;;;13.22;63.88;99052.75;4978868;28;114240;-72
2023/01/05 03:41:15;;;;;;;1.00;0.80;;;12.90;96.30;;;13.24;63.80;99046.88;4965533;28;113901;-72
2023/01/05 03:43:42;;;;;;;0.90;0.70;;;12.70;96.30;;;13.25;64.09;99046.56;4963547;28;124546;-72
2023/01/05 03:46:17;;;;;;;0.80;0.70;;;13.00;96.40;;;13.25;63.92;99043.78;4965605;28;123802;-72
2023/01/05 03:48:43;;;;;;;0.90;0.77;;;12.80;96.30;;;13.25;63.95;99054.88;4958510;28;114404;-73
2023/01/05 03:51:10;;;;;;;0.90;0.70;;;12.80;96.30;;;13.26;63.93;99053.75;4958725;28;113997;-72
2023/01/05 03:53:36;;;;;;;1.00;0.70;;;12.80;96.40;;;13.28;64.00;99060.97;4970473;28;123791;-73
2023/01/05 03:56:03;;;;;;;1.53;0.87;;;13.00;96.50;;;13.28;64.03;99049.88;4970250;28;124136;-72
2023/01/05 03:58:29;;;;;;;0.80;0.70;;;12.80;96.50;;;13.30;63.91;99053.09;4970533;28;114375;-73
2023/01/05 04:00:56;;;;;;;1.00;0.70;;;12.90;96.50;;;13.30;64.03;99050.34;4970304;28;114542;-72
2023/01/05 04:03:22;;;;;;;0.80;0.70;;;12.90;96.50;;;13.31;64.20;99049.22;4970563;28;123987;-72
2023/01/05 04:05:49;;;;;;;0.80;0.70;;;12.90;96.50;;;13.33;64.20;99049.72;4970244;28;123412;-73
2023/01/05 04:08:15;;;;;;;0.80;0.70;;;13.00;96.60;;;13.35;64.10;99050.19;5003780;28;114673;-73
2023/01/05 04:10:42;;;;;;;0.90;0.77;;;12.90;96.50;;;13.35;64.17;99050.19;4970359;28;115042;-72
2023/01/05 04:13:08;;;;;;;0.80;0.70;;;12.90;96.50;;;13.37;64.25;99056.22;4967963;28;124060;-74
2023/01/05 04:15:35;;;;;;;0.97;0.80;;;12.90;96.60;;;13.37;64.09;99045.94;4960243;28;123662;-72
2023/01/05 04:18:02;;;;;;;0.80;0.70;;;13.00;96.60;;;13.39;64.05;99051.19;4963323;28;114351;-73
2023/01/05 04:20:28;;;;;;;0.80;0.70;;;13.00;96.60;;;13.40;64.11;99050.03;4968414;28;112972;-72
2023/01/05 04:22:55;;;;;;;0.90;0.80;;;13.00;96.60;;;13.44;64.16;99051.03;4970389;28;123463;-73
2023/01/05 04:25:21;;;;;;;0.90;0.70;;;13.00;96.60;;;13.46;63.90;99043.19;4969979;28;123862;-73
2023/01/05 04:27:47;;;;;;;0.87;0.77;;;13.00;96.60;;;13.48;63.89;99047.25;4975230;28;114431;-72
2023/01/05 04:30:14;;;;;;;1.07;0.80;;;13.00;96.50;;;13.50;63.92;99049.72;4969521;28;114031;-74
2023/01/05 04:32:40;;;;;;;0.90;0.70;;;13.20;96.60;;;13.52;63.87;99044.66;5004103;28;123313;-74
2023/01/05 04:35:07;;;;;;;0.90;0.70;;;13.10;96.50;;;13.53;63.82;99035.19;4970092;28;123749;-73
2023/01/05 04:37:34;;;;;;;0.90;0.70;;;13.10;96.50;;;13.54;63.68;99044.31;4969371;28;114416;-73
2023/01/05 04:40:00;;;;;;;1.00;0.77;;;13.20;96.60;;;13.54;63.63;99042.38;4968264;28;113957;-74
2023/01/05 04:42:26;;;;;;;0.80;0.70;;;13.60;96.70;;;13.54;63.78;99039.59;5004265;28;123388;-74
2023/01/05 04:44:53;;;;;;;0.90;0.70;;;13.10;96.40;;;13.54;63.73;99041.53;4967647;28;123797;-74
2023/01/05 04:47:20;;;;;;;0.90;0.70;;;13.10;96.50;;;13.54;63.90;99049.88;4969459;28;114744;-75
2023/01/05 04:49:46;;;;;;;0.90;0.80;;;13.10;96.50;;;13.54;63.95;99038.75;4970113;28;113856;-75
2023/01/05 04:52:12;;;;;;;0.80;0.70;;;13.10;96.50;;;13.53;63.69;99049.06;4988892;28;124955;-76
2023/01/05 04:54:39;;;;;;;0.90;0.80;;;13.10;96.50;;;13.55;63.99;99049.56;4957489;28;123782;-75
2023/01/05 04:57:05;;;;;;;1.10;0.80;;;14.20;97.00;;;13.55;63.89;99044.00;4971282;28;115538;-73
2023/01/05 04:59:32;;;;;;;0.80;0.70;;;13.60;96.70;;;13.57;63.84;99057.56;4969837;28;114996;-75
2023/01/05 05:01:58;;;;;;;1.00;0.80;;;13.10;96.50;;;13.58;63.72;99054.44;4991230;28;123469;-74
2023/01/05 05:04:25;;;;;;;1.13;0.90;;;13.20;96.50;;;13.58;63.92;99059.19;4968694;28;123925;-75
2023/01/05 05:06:52;;;;;;;1.10;0.80;;;13.20;96.60;;;13.59;63.85;99061.63;4972947;28;113623;-73
2023/01/05 05:09:18;;;;;;;0.80;0.70;;;13.20;96.60;;;13.60;63.92;99065.25;4961015;28;112479;-74
2023/01/05 05:11:45;;;;;;;1.27;0.80;;;13.20;96.60;;;13.63;63.80;99064.59;4967720;28;124063;-73
2023/01/05 05:14:11;;;;;;;0.80;0.67;;;13.30;96.60;;;13.65;63.87;99067.88;4969490;28;123725;-73
2023/01/05 05:16:38;;;;;;;0.80;0.70;;;13.20;96.60;;;13.65;63.86;99068.69;4969550;28;114256;-75
2023/01/05 05:19:05;;;;;;;0.80;0.70;;;13.20;96.50;;;13.66;63.83;99070.28;4965426;28;114054;-73
2023/01/05 05:21:32;;;;;;;2.73;0.80;;;13.60;96.70;;;13.68;63.81;99079.13;4970857;28;124144;-74
2023/01/05 05:23:58;;;;;;;0.93;0.70;;;13.20;96.50;;;13.70;63.78;99076.00;4968545;28;124712;-73
2023/01/05 05:26:25;;;;;;;1.00;0.80;;;13.30;96.50;;;13.73;63.79;99077.31;4982312;28;113450;-73
2023/01/05 05:28:51;;;;;;;1.03;0.80;;;13.30;96.50;;;13.76;63.92;99085.81;4966195;28;112641;-74
2023/01/05 05:31:20;;;;;;;3.37;0.80;;;13.40;96.60;;;13.81;63.56;99090.38;4970667;28;123062;-73
2023/01/05 05:33:47;;;;;;;1.10;0.80;;;13.30;96.50;;;13.85;63.53;99097.75;5000533;28;123826;-74
2023/01/05 05:36:14;;;;;;;0.80;0.70;;;13.40;96.60;;;13.92;63.61;99105.59;4968552;28;114287;-75
2023/01/05 05:38:40;;;;;;;0.90;0.70;;;13.40;96.60;;;13.97;63.17;99113.78;4967614;28;113874;-73
2023/01/05 05:41:07;;;;;;;0.90;0.80;;;13.50;96.60;;;13.99;63.71;99105.09;4968009;28;124300;-73
2023/01/05 05:43:33;;;;;;;1.73;0.80;;;13.50;96.60;;;13.96;63.95;99109.34;4969094;28;123952;-73
2023/01/05 05:46:00;;;;;;;0.90;0.80;;;13.50;96.70;;;13.93;63.86;99108.03;4967763;28;115660;-76
2023/01/05 05:48:26;;;;;;;0.80;0.70;;;14.00;97.10;;;13.88;64.21;99118.50;4969221;28;115207;-75
2023/01/05 05:50:53;;;;;;;0.90;0.70;;;13.40;96.90;;;13.82;64.93;99115.06;4976435;28;123234;-73
2023/01/05 05:53:20;;;;;;;0.80;0.70;;;13.40;97.20;;;13.76;65.04;99119.16;4969604;28;123673;-74
2023/01/05 05:55:50;;;;;;;1.00;0.70;;;13.30;97.20;;;13.72;65.40;99123.72;4968643;28;113423;-75
2023/01/05 05:58:18;;;;;;;0.90;0.70;;;13.30;97.70;;;13.68;65.63;99129.09;4967273;28;116045;-74
2023/01/05 06:00:45;;;;;;;0.80;0.70;;;13.30;97.50;;;13.67;65.54;99126.63;4967927;28;124047;-73
2023/01/05 06:03:12;;;;;;;3.33;0.80;;;13.30;97.50;;;13.62;65.48;99138.75;4960754;28;124435;-74
2023/01/05 06:05:38;;;;;;;1.10;0.80;;;14.50;98.00;;;13.53;65.51;99143.44;4968843;28;114176;-74
2023/01/05 06:08:05;;;;;;;1.23;0.70;;;13.90;97.80;;;13.49;65.34;99148.03;4967029;28;113935;-74
2023/01/05 06:10:31;;;;;;;1.40;1.20;;;13.10;97.50;;;13.45;65.64;99141.47;4966220;28;124554;-75
2023/01/05 06:12:58;;;;;;;2.60;0.90;;;13.10;97.50;;;13.43;65.74;99160.41;4967674;28;123811;-73
2023/01/05 06:15:24;;;;;;;1.57;1.00;;;13.00;97.60;;;13.36;66.01;99166.44;4970823;28;114334;-76
2023/01/05 06:17:51;;;;;;;0.80;0.70;;;13.00;97.70;;;13.30;66.36;99167.72;4968696;28;113920;-73
2023/01/05 06:20:18;;;;;;;1.13;0.80;;;12.90;97.80;;;13.22;66.58;99160.16;4942489;28;123826;-75
2023/01/05 06:22:44;;;;;;;1.30;0.73;;;12.90;97.90;;;13.14;67.17;99170.09;4969057;28;123858;-73
2023/01/05 06:25:11;;;;;;;1.00;0.80;;;12.80;98.20;;;13.09;67.12;99178.53;4969253;28;114511;-75
2023/01/05 06:27:37;;;;;;;1.30;0.90;;;12.70;98.20;;;13.01;67.34;99182.91;4969306;28;113727;-73
2023/01/05 06:30:05;;;;;;;1.10;0.90;;;12.90;98.50;;;12.96;67.68;99179.47;4968045;28;124080;-74
2023/01/05 06:32:31;;;;;;;1.20;1.10;;;12.60;98.40;;;12.89;67.82;99192.97;4972282;28;122351;-74
2023/01/05 06:34:58;;;;;;;1.20;0.90;;;12.50;98.40;;;12.82;67.83;99197.00;4968585;28;114453;-73
2023/01/05 06:37:25;;;;;;;4.43;1.30;;;12.50;98.60;;;12.78;68.41;99200.72;4968398;28;114838;-73
2023/01/05 06:39:54;;;;;;;1.60;1.10;;;12.40;98.90;;;12.73;68.56;99198.91;4968037;28;124119;-78
2023/01/05 06:42:20;;;;;;;4.83;1.17;;;12.40;98.90;;;12.69;68.57;99231.19;4967001;28;124263;-73
2023/01/05 06:44:47;;;;;;;1.03;0.80;;;12.30;99.00;;;12.67;68.77;99227.09;4968209;28;114075;-74
2023/01/05 06:47:13;;;;;;;1.67;1.00;;;12.30;99.00;;;12.67;68.58;99216.81;4967925;28;113985;-73
2023/01/05 06:49:40;;;;;;;2.00;1.00;;;12.40;99.10;;;12.66;69.10;99217.94;4969599;28;124017;-73
2023/01/05 06:52:06;;;;;;;1.60;1.00;;;12.30;99.20;;;12.64;69.08;99222.16;4968662;28;122520;-74
2023/01/05 06:54:32;;;;;;;1.93;1.03;;;12.20;99.20;;;12.62;69.02;99232.75;4968968;28;114366;-73
2023/01/05 06:56:59;;;;;;;1.10;1.00;;;12.30;99.30;;;12.61;69.04;99218.06;4969223;28;114074;-73
2023/01/05 06:59:26;;;;;;;2.90;1.30;;;14.20;99.90;;;12.64;69.09;99222.16;5000571;28;125910;-73
2023/01/05 07:01:53;;;;;;;1.80;1.10;;;12.30;99.40;;;12.65;69.60;99232.94;4962036;28;123948;-73
2023/01/05 07:04:19;;;;;;;2.90;0.97;;;12.30;99.40;;;12.69;69.15;99225.63;4968869;28;113368;-73
2023/01/05 07:06:45;;;;;;;1.10;0.83;;;13.10;99.80;;;12.75;69.19;99231.88;4962528;28;114056;-74
2023/01/05 07:09:12;;;;;;;2.43;0.83;;;12.30;99.40;;;12.79;69.03;99239.25;4962329;28;124398;-73
2023/01/05 07:11:41;;;;;;;4.90;0.90;;;12.40;99.50;;;12.82;68.69;99235.84;4959728;28;123927;-75
2023/01/05 07:14:08;;;;;;;1.20;0.80;;;12.40;99.50;;;12.86;68.57;99243.50;4963967;28;114204;-75
2023/01/05 07:16:34;;;;;;;2.33;1.10;;;12.40;99.40;;;12.87;68.51;99242.38;4962067;28;113897;-73
2023/01/05 07:19:00;;;;;;;1.27;0.90;;;12.50;99.50;;;12.90;68.69;99244.53;4953786;28;124526;-73
2023/01/05 07:21:27;;;;;;;1.40;1.00;;;12.40;99.40;;;12.91;68.38;99241.44;4965913;28;123657;-72
2023/01/05 07:23:54;;;;;;;1.37;0.97;;;12.60;99.40;;;12.94;68.15;99239.97;4965999;28;115314;-73
2023/01/05 07:26:20;;;;;;;3.83;1.47;;;12.40;99.30;;;12.95;68.12;99239.66;4966596;28;114692;-73
2023/01/05 07:28:47;;;;;;;1.33;1.10;;;12.50;99.20;;;12.94;67.80;99231.66;4938442;28;124114;-73
2023/01/05 07:31:13;;;;;;;4.50;1.30;;;12.40;99.00;;;12.92;67.53;99245.00;4954364;28;123761;-73
2023/01/05 07:33:39;;;;;;;3.10;1.10;;;12.50;98.90;;;12.92;67.55;99250.56;4967214;28;114836;-73
2023/01/05 07:36:07;;;;;;;2.90;1.40;;;12.50;98.80;;;12.91;66.31;99238.66;4967066;28;112876;-73
2023/01/05 07:38:33;;;;;;;3.00;1.53;;;12.40;98.30;;;12.88;66.24;99260.66;4966435;28;124756;-72
2023/01/05 07:41:01;;;;;;;3.10;1.57;;;12.40;98.20;;;12.86;65.81;99240.75;4986907;28;122279;-73
2023/01/05 07:43:28;;;;;;;3.83;1.40;;;12.40;98.00;;;12.84;65.60;99246.59;4937451;28;113737;-74
2023/01/05 07:46:01;;;;;;;2.93;1.20;;;12.40;97.80;;;12.83;65.45;99240.22;4967409;28;113988;-74
2023/01/05 07:48:28;;;;;;;7.23;1.50;;;12.40;97.80;;;12.82;65.39;99246.13;4958045;28;124368;-74
2023/01/05 07:51:03;;;;;;;2.90;1.57;;;12.40;97.50;;;12.80;65.09;99254.72;4964024;28;123644;-73
2023/01/05 07:53:31;;;;;;;2.90;1.20;;;12.70;97.60;;;12.78;65.21;99268.09;4953069;28;113427;-74
2023/01/05 07:55:59;;;;;;;5.33;1.50;;;12.90;97.60;;;12.80;64.67;99256.69;4966799;28;114165;-74
2023/01/05 07:58:27;;;;;;;3.93;1.37;;;12.40;97.40;;;12.81;64.68;99261.94;4972605;28;124121;-74
2023/01/05 08:00:55;;;;;;;2.20;1.10;;;12.40;97.20;;;12.83;64.29;99270.72;4971573;28;123728;-75
2023/01/05 08:03:22;;;;;;;3.83;1.90;;;12.40;97.00;;;12.85;64.15;99269.63;4974274;28;114553;-73
2023/01/05 08:05:50;;;;;;;9.50;2.03;;;13.00;97.20;;;12.86;63.74;99282.34;4968449;28;113978;-77
2023/01/05 08:08:16;;;;;;;2.13;1.40;;;12.40;96.70;;;12.86;63.75;99279.56;4966658;28;124006;-77
2023/01/05 08:10:43;;;;;;;4.10;1.77;;;12.50;96.70;;;12.89;63.62;99287.25;4975846;28;124052;-76
2023/01/05 08:15:59;;;;;;;3.67;1.37;;;12.50;96.60;;;12.92;63.37;99293.00;4971889;28;115281;-76
2023/01/05 08:18:26;;;;;;;3.93;1.23;;;12.50;96.50;;;12.94;63.34;99301.00;4970538;28;124469;-74
2023/01/05 08:20:55;;;;;;;3.53;1.33;;;12.50;96.40;;;12.97;63.23;99294.81;4965550;28;123701;-75
2023/01/05 08:23:24;;;;;;;3.60;1.40;;;12.50;96.40;;;13.00;63.14;99299.72;4965825;28;114502;-74
2023/01/05 08:25:52;;;;;;;3.33;1.90;;;12.60;96.40;;;13.01;63.28;99298.59;4966084;28;113867;-76
2023/01/05 08:28:18;;;;;;;4.83;1.40;;;12.60;96.20;;;13.03;62.72;99299.13;4971250;28;123264;-76
2023/01/05 08:30:46;;;;;;;3.70;1.50;;;12.60;96.20;;;13.03;62.95;99302.69;4966038;28;123776;-74
2023/01/05 08:33:13;;;;;;;3.70;1.70;;;12.60;96.20;;;13.04;62.76;99311.84;4960201;28;113549;-73
2023/01/05 08:35:45;;;;;;;3.33;1.80;;;12.60;96.10;;;13.02;62.57;99312.13;4970294;28;113995;-72
2023/01/05 08:38:11;;;;;;;3.03;1.43;;;12.60;96.00;;;13.04;62.50;99320.16;4970107;28;123035;-74
2023/01/05 08:40:38;;;;;;;2.80;1.37;;;12.60;96.00;;;13.03;62.26;99313.78;4956669;28;123740;-74
2023/01/05 08:43:05;;;;;;;4.90;1.83;;;13.70;96.40;;;13.03;62.42;99333.22;4960487;28;114303;-74
2023/01/05 08:45:32;;;;;;;2.60;1.37;;;12.60;95.90;;;13.04;62.27;99322.94;4969846;28;114108;-74
2023/01/05 08:48:00;;;;;;;2.37;1.23;;;12.60;95.80;;;13.04;61.95;99326.53;4952460;28;124448;-75
2023/01/05 08:50:27;;;;;;;6.17;1.80;;;12.80;95.80;;;13.03;61.73;99321.31;4963571;28;123840;-73
2023/01/05 08:52:53;;;;;;;3.67;1.60;;;12.60;95.60;;;13.04;61.47;99325.69;4975401;28;112972;-74
2023/01/05 08:55:20;;;;;;;5.30;2.03;;;12.60;95.40;;;13.04;61.52;99320.97;4957592;28;114029;-74
2023/01/05 08:57:46;;;;;;;6.43;1.97;;;13.50;95.80;;;13.08;61.31;99328.66;4953705;28;124385;-74
2023/01/05 09:00:16;;;;;;;7.20;1.60;;;12.70;95.30;;;13.09;60.86;99330.31;4955650;28;123842;-72
2023/01/05 09:02:43;;;;;;;4.30;1.80;;;12.70;95.10;;;13.09;60.63;99345.00;4983753;28;115363;-73
2023/01/05 09:05:10;;;;;;;4.97;1.50;;;12.70;94.90;;;13.10;60.38;99335.53;4984540;28;114974;-73
2023/01/05 09:07:36;;;;;;;4.50;1.57;;;12.70;94.80;;;13.10;59.96;99346.63;4955056;28;123961;-73
2023/01/05 09:10:06;;;;;;;4.73;1.70;;;12.70;94.50;;;13.10;59.52;99335.53;4950533;28;123808;-76
2023/01/05 09:12:37;;;;;;;5.07;1.57;;;12.70;94.40;;;13.10;59.27;99349.41;4963539;28;114081;-76
2023/01/05 09:15:05;;;;;;;8.47;1.90;;;12.70;94.10;;;13.05;58.83;99339.25;4954395;28;113954;-75
2023/01/05 09:17:34;;;;;;;7.40;1.80;;;12.60;93.80;;;13.05;58.55;99352.28;4951331;28;124046;-77
2023/01/05 09:20:02;;;;;;;3.50;1.63;;;12.60;93.60;;;13.04;58.14;99359.81;4958424;28;123432;-76
2023/01/05 09:22:31;;;;;;;7.30;2.13;;;12.60;93.20;;;13.03;58.00;99352.63;4967280;28;114106;-77
2023/01/05 09:24:57;;;;;;;4.20;1.70;;;12.60;93.20;;;13.04;57.60;99370.09;4981971;28;114021;-78
2023/01/05 09:27:24;;;;;;;9.10;2.63;;;12.60;93.10;;;13.08;57.70;99364.72;4962263;28;124090;-76
2023/01/05 09:29:50;;;;;;;10.63;2.43;;;12.80;93.20;;;13.09;57.17;99361.66;4952701;28;123850;-72
2023/01/05 09:32:16;;;;;;;6.30;1.90;;;12.80;93.00;;;13.10;57.03;99365.22;4955883;28;116808;-74
2023/01/05 09:34:43;;;;;;;7.30;2.47;;;12.70;92.80;;;13.11;57.37;99373.25;4952454;28;113695;-74
2023/01/05 09:37:09;;;;;;;8.83;1.77;;;12.70;92.80;;;13.13;56.59;99368.19;4962567;28;123252;-71
2023/01/05 09:39:37;;;;;;;9.30;2.10;;;13.20;92.70;;;13.14;56.33;99377.34;4950119;28;123779;-73
2023/01/05 09:42:11;;;;;;;9.37;2.20;;;12.70;92.30;;;13.14;56.08;99363.47;4986285;28;114727;-75
2023/01/05 09:45:06;;;;;;;9.20;2.67;;;12.70;92.20;;;13.12;55.76;99361.00;4969438;28;113805;-74
2023/01/05 09:47:42;;;;;;;10.40;2.27;;;12.70;92.00;;;13.11;55.79;99367.72;4957204;28;124640;-75
2023/01/05 09:50:20;;;;;;;9.60;2.27;;;12.80;92.00;;;13.13;55.93;99376.50;4973078;28;122779;-75
2023/01/05 09:52:48;;;;;;;7.90;2.27;;;12.70;92.00;;;13.12;55.48;99382.38;4969973;28;115416;-76
2023/01/05 09:55:17;;;;;;;13.00;2.00;;;12.70;91.80;;;13.14;55.39;99394.00;4967572;28;114719;-77
2023/01/05 09:57:57;;;;;;;8.40;2.47;;;12.70;91.80;;;13.15;55.10;99382.56;4950093;28;124840;-74
2023/01/05 10:00:25;;;;;;;13.97;2.20;;;12.70;91.60;;;13.13;54.82;99390.38;4956009;28;122417;-74
2023/01/05 10:03:13;;;;;;;8.90;2.13;;;12.70;91.40;;;13.10;55.08;99385.47;4942491;28;113116;-77
2023/01/05 10:05:42;;;;;;;9.20;2.10;;;12.70;91.50;;;13.09;55.05;99392.16;4965437;28;113516;-73
2023/01/05 10:08:26;;;;;;;6.40;1.80;;;12.70;91.50;;;13.12;55.32;99391.53;4962485;28;124454;-73
2023/01/05 10:14:15;;;;;;;10.23;2.70;;;12.70;91.40;;;13.10;54.99;99393.78;4974270;28;113880;-72
2023/01/05 10:16:44;;;;;;;8.23;2.63;;;12.70;91.40;;;13.12;55.04;99394.31;4953086;28;112940;-72
2023/01/05 10:19:17;;;;;;;6.70;3.13;;;12.70;91.40;;;13.16;54.80;99386.16;4974182;28;124274;-73
2023/01/05 10:22:05;;;;;;;8.23;2.40;;;12.70;91.30;;;13.17;54.61;99385.84;4952582;28;123403;-74
2023/01/05 10:25:12;;;;;;;6.00;2.17;;;12.70;91.30;;;13.16;54.85;99389.75;4959923;28;115025;-75
2023/01/05 10:27:46;;;;;;;9.73;2.30;;;12.80;91.20;;;13.15;54.71;99393.66;4944538;28;114196;-75
2023/01/05 10:30:44;;;;;;;7.03;2.60;;;12.70;91.40;;;13.17;54.54;99390.59;4989584;28;124007;-76
2023/01/05 10:33:22;;;;;;;7.33;2.50;;;12.80;91.20;;;13.18;54.64;99381.94;4967595;28;123738;-74
2023/01/05 10:36:26;;;;;;;8.93;2.23;;;12.80;91.20;;;13.19;54.37;99380.81;4986287;28;114484;-74
2023/01/05 10:39:18;;;;;;;5.50;1.87;;;12.80;91.00;;;13.20;54.82;99378.84;4952663;28;114508;-74
2023/01/05 10:42:12;;;;;;;14.90;2.60;;;12.80;91.10;;;13.23;54.06;99384.59;4968807;28;124403;-75
2023/01/05 10:45:05;;;;;;;9.67;2.93;;;12.80;90.80;;;13.24;54.14;99380.69;4947590;28;123812;-75
2023/01/05 10:47:36;;;;;;;13.57;2.70;;;12.90;90.90;;;13.28;53.83;99385.63;4967321;28;115470;-74
2023/01/05 10:50:35;;;;;;;4.17;2.10;;;12.90;90.80;;;13.32;54.07;99392.19;4957912;28;115275;-75
2023/01/05 10:53:10;;;;;;;6.00;2.13;;;12.90;90.80;;;13.39;53.94;99387.00;4956400;28;124124;-75
2023/01/05 10:55:55;;;;;;;9.00;2.50;;;13.00;90.80;;;13.42;53.35;99381.63;4951954;28;124365;-75
2023/01/05 10:58:28;;;;;;;10.17;2.40;;;13.00;90.50;;;13.42;52.91;99387.19;4953372;28;114004;-74
2023/01/05 11:01:00;;;;;;;9.70;2.70;;;13.00;90.30;;;13.43;53.32;99383.28;4970423;28;113743;-74
2023/01/05 11:03:35;;;;;;;7.77;2.70;;;13.00;90.30;;;13.44;52.66;99382.16;4950661;28;123864;-73
2023/01/05 11:06:03;;;;;;;8.70;2.63;;;13.00;90.00;;;13.43;53.01;99383.28;4988273;28;123813;-73